Melrose Vista, Florida
Current Conditions -  °F | °C
As of 11:53 AM on Wednesday 22 Oct 2014 (Local Time) from KFLL Reporting Station
Overcast Overcast  
Wind Chill: 83°   Ceiling: 22000
Heat Index: 86°   Visibility: 10mi
Dew Point: 69°   Wind: 0mph
Humidity: 63%   Direction: NA
Pressure: 29.96"   Gusts: NA
Location:  26.0861°N, 80.1822°W
Report Text: KFLL 221553Z 00000KT 10SM FEW027 FEW040 OVC220 28/21 A2996 RMK AO2 SLP146 T02830206
Loading
Personal Weather Stations






























Interactive Weather Map
Tropical Storm Tracking
New forecast layout! Learn more

10-Day Weather Forecast

Advertisements
Track Severe Weather on mobile